Goddard, KS (67052)

04:22 CDT le 29 Mars 2015 (GMT -0500)
Goddard North | | Change Station
CLOSE
Current Station
Stations météorologiques personnelles
Location: Goddard, KS
Altitude: 1473 ft
Stations météo à proximité

Alt. 1473 ft 37.67 °N, 97.58 °W | Updated 2 minutes ago

Ciel dégagé
Ciel dégagé
48.4 ° F
Paraît 43 ° F
N
14.0
Vent Variable Vent de SSO

Aujourd'hui
Haut(e) -- | Bas -- ° F
--% Risque de précip.
Hier
Haut(e) -- | Bas -- ° F
Precip. -- pouce
7:20 AM 7:50 PM
Lune gibbeuse croissante, 70% visible
Pression 29.88 pouce
Visibilité 10.0 Miles terrestres
Nuages Ciel dégagé
Refroidissement éolien 43 ° F
Point de rosée 44 ° F
Humidité 83%
Précipitations 0.00 pouce
Profondeur de la couche neigeuse Non disponible.
UV 0 sur 12
Pollen 8.60 sur 12
Qualité de l'air Non disponible.
Flu Activity Non disponible.
METAR KICT 290853Z 18012KT 10SM CLR 10/06 A2989 RMK AO2 SLP116 T01000056 58020

More Conditions Fewer Conditions

Pression 29.88 pouce
Visibilité 10.0 Miles terrestres
Nuages Ciel dégagé
Refroidissement éolien 43 ° F
Point de rosée 44 ° F
Humidité 83%
Précipitations 0.00 pouce
Profondeur de la couche neigeuse Non disponible.
UV 0 sur 12
Pollen 8.60 sur 12
Qualité de l'air Non disponible.
Flu Activity Non disponible.
METAR KICT 290853Z 18012KT 10SM CLR 10/06 A2989 RMK AO2 SLP116 T01000056 58020

More Conditions Fewer Conditions

10-Day Weather Forecast

Almanac

Astronomie

Mar. 29, 2015 Lever Coucher
Temps réel
Crépuscule civil
Crépuscule nautique
Crépuscule astronomique
Lune
Durée de lumière visible
Longueur du jour
Tomorrow will be .
, % of the Moon is Illuminated

Extrêmes aujourd'hui

State Highs State Lows

Community

WunderPhotos

Upload Photos

1,809,187 Photos téléchargées !

WunderBlogs® & News

Nearby

Qualité de l'air

  Qualité de l'air Indice de la qualité de l'air Polluant
Not available.

Épaisseur de neige

Station Depth Altitude

Activité sismique

Ville Distance Mag. Time & Date
Minimum magnitude displayed is 2.5.

Températures des eaux côtières

Lieu Température

Stations

Stations météo à proximité

Emplacement de la station Température Refroidissement éolien Point de rosée Humidité Vent Precip. Alt. Mise à jour Type